ěÝzenÝ letovÚho provozu ╚eskÚ republiky
Letiste: LKPR Aktualizace: 31.01.2023 17:35:32  UTC
 METAR LKPR 31.01. 17:30 ...
METAR LKPR 311730Z 24023G33KT 9999 BKN046 02/M01 Q1015 NOSIG=
 TAF LKPR 31.01. 17:00 ...
TAF LKPR 311700Z 3118/0200 26014KT 9999 BKN027      PROB30 TEMPO 3118/3121 29020G40KT      TEMPO 3118/0103 7000 SHRASN BKN007      PROB30 TEMPO 0111/0118 29020G40KT      PROB30 TEMPO 0116/0200 1500 SHSNRA BKN005=
 WARNING LKPR 31.01. 17:34 ...
LKPR AD WRNG 1 VALID 311735/311910 SFC WSPD 26KT FCST NC=